sensor_id;sensor_type;location;lat;lon;timestamp;P1;durP1;ratioP1;P2;durP2;ratioP2
32292;SDS011;43233;48.608;8.838;2023-04-24T00:02:23;0.90;;;0.90;;
32292;SDS011;43233;48.608;8.838;2023-04-24T00:04:49;1.60;;;1.07;;
32292;SDS011;43233;48.608;8.838;2023-04-24T00:07:14;1.63;;;1.20;;
32292;SDS011;43233;48.608;8.838;2023-04-24T00:09:41;5.27;;;1.20;;
32292;SDS011;43233;48.608;8.838;2023-04-24T00:12:10;1.07;;;1.03;;
32292;SDS011;43233;48.608;8.838;2023-04-24T00:14:36;1.87;;;1.30;;
32292;SDS011;43233;48.608;8.838;2023-04-24T00:17:02;1.10;;;1.10;;
32292;SDS011;43233;48.608;8.838;2023-04-24T00:19:28;2.43;;;1.40;;
32292;SDS011;43233;48.608;8.838;2023-04-24T00:21:54;1.47;;;1.10;;
32292;SDS011;43233;48.608;8.838;2023-04-24T00:24:20;1.30;;;1.20;;
32292;SDS011;43233;48.608;8.838;2023-04-24T00:26:46;3.90;;;1.40;;
32292;SDS011;43233;48.608;8.838;2023-04-24T00:29:12;2.23;;;1.40;;
32292;SDS011;43233;48.608;8.838;2023-04-24T00:31:38;2.80;;;1.43;;
32292;SDS011;43233;48.608;8.838;2023-04-24T00:34:04;2.67;;;1.80;;
32292;SDS011;43233;48.608;8.838;2023-04-24T00:36:30;1.43;;;1.33;;
32292;SDS011;43233;48.608;8.838;2023-04-24T00:38:57;1.50;;;1.40;;
32292;SDS011;43233;48.608;8.838;2023-04-24T00:41:24;1.83;;;1.43;;
32292;SDS011;43233;48.608;8.838;2023-04-24T00:43:50;6.67;;;1.77;;
32292;SDS011;43233;48.608;8.838;2023-04-24T00:46:17;1.30;;;1.20;;
32292;SDS011;43233;48.608;8.838;2023-04-24T00:48:42;2.03;;;1.40;;
32292;SDS011;43233;48.608;8.838;2023-04-24T00:51:09;1.20;;;1.10;;
32292;SDS011;43233;48.608;8.838;2023-04-24T00:53:35;1.27;;;1.00;;
32292;SDS011;43233;48.608;8.838;2023-04-24T00:56:01;2.47;;;1.20;;
32292;SDS011;43233;48.608;8.838;2023-04-24T00:58:27;2.50;;;1.20;;
32292;SDS011;43233;48.608;8.838;2023-04-24T01:00:53;3.43;;;1.23;;
32292;SDS011;43233;48.608;8.838;2023-04-24T01:03:20;1.53;;;1.40;;
32292;SDS011;43233;48.608;8.838;2023-04-24T01:05:49;1.27;;;1.20;;
32292;SDS011;43233;48.608;8.838;2023-04-24T01:08:15;1.27;;;1.20;;
32292;SDS011;43233;48.608;8.838;2023-04-24T01:10:41;2.20;;;1.50;;
32292;SDS011;43233;48.608;8.838;2023-04-24T01:13:08;1.50;;;1.40;;
32292;SDS011;43233;48.608;8.838;2023-04-24T01:15:34;1.13;;;1.13;;
32292;SDS011;43233;48.608;8.838;2023-04-24T01:18:00;1.30;;;1.20;;
32292;SDS011;43233;48.608;8.838;2023-04-24T01:20:26;1.27;;;1.10;;
32292;SDS011;43233;48.608;8.838;2023-04-24T01:22:52;1.20;;;1.10;;
32292;SDS011;43233;48.608;8.838;2023-04-24T01:25:19;5.83;;;1.73;;
32292;SDS011;43233;48.608;8.838;2023-04-24T01:27:45;1.50;;;1.40;;
32292;SDS011;43233;48.608;8.838;2023-04-24T01:30:11;1.30;;;1.20;;
32292;SDS011;43233;48.608;8.838;2023-04-24T01:32:38;1.60;;;1.50;;
32292;SDS011;43233;48.608;8.838;2023-04-24T01:35:04;2.80;;;1.03;;
32292;SDS011;43233;48.608;8.838;2023-04-24T01:37:31;1.43;;;1.20;;
32292;SDS011;43233;48.608;8.838;2023-04-24T01:39:58;1.03;;;1.03;;
32292;SDS011;43233;48.608;8.838;2023-04-24T01:42:24;1.50;;;1.40;;
32292;SDS011;43233;48.608;8.838;2023-04-24T01:44:49;3.23;;;1.10;;
32292;SDS011;43233;48.608;8.838;2023-04-24T01:47:16;1.40;;;1.30;;
32292;SDS011;43233;48.608;8.838;2023-04-24T01:49:42;1.20;;;1.20;;
32292;SDS011;43233;48.608;8.838;2023-04-24T01:52:07;1.13;;;1.13;;
32292;SDS011;43233;48.608;8.838;2023-04-24T01:54:33;4.33;;;1.27;;
32292;SDS011;43233;48.608;8.838;2023-04-24T01:56:59;1.30;;;1.20;;
32292;SDS011;43233;48.608;8.838;2023-04-24T01:59:26;3.07;;;1.10;;
32292;SDS011;43233;48.608;8.838;2023-04-24T02:01:53;1.43;;;1.27;;
32292;SDS011;43233;48.608;8.838;2023-04-24T02:04:19;1.93;;;1.30;;
32292;SDS011;43233;48.608;8.838;2023-04-24T02:06:45;1.90;;;0.97;;
32292;SDS011;43233;48.608;8.838;2023-04-24T02:09:10;1.40;;;1.30;;
32292;SDS011;43233;48.608;8.838;2023-04-24T02:11:36;1.37;;;1.27;;
32292;SDS011;43233;48.608;8.838;2023-04-24T02:14:02;3.63;;;1.30;;
32292;SDS011;43233;48.608;8.838;2023-04-24T02:16:28;2.10;;;1.40;;
32292;SDS011;43233;48.608;8.838;2023-04-24T02:18:57;1.40;;;1.30;;
32292;SDS011;43233;48.608;8.838;2023-04-24T02:21:22;2.20;;;1.10;;
32292;SDS011;43233;48.608;8.838;2023-04-24T02:23:48;4.00;;;1.10;;
32292;SDS011;43233;48.608;8.838;2023-04-24T02:26:13;1.30;;;1.10;;
32292;SDS011;43233;48.608;8.838;2023-04-24T02:28:40;1.20;;;1.10;;
32292;SDS011;43233;48.608;8.838;2023-04-24T02:31:05;1.60;;;1.50;;
32292;SDS011;43233;48.608;8.838;2023-04-24T02:33:31;1.83;;;1.27;;
32292;SDS011;43233;48.608;8.838;2023-04-24T02:35:57;1.93;;;1.33;;
32292;SDS011;43233;48.608;8.838;2023-04-24T02:38:22;4.37;;;1.30;;
32292;SDS011;43233;48.608;8.838;2023-04-24T02:40:48;2.00;;;1.20;;
32292;SDS011;43233;48.608;8.838;2023-04-24T02:43:13;1.20;;;1.20;;
32292;SDS011;43233;48.608;8.838;2023-04-24T02:45:39;1.33;;;1.20;;
32292;SDS011;43233;48.608;8.838;2023-04-24T02:48:05;1.33;;;1.20;;
32292;SDS011;43233;48.608;8.838;2023-04-24T02:50:30;1.20;;;1.20;;
32292;SDS011;43233;48.608;8.838;2023-04-24T02:52:56;1.20;;;1.20;;
32292;SDS011;43233;48.608;8.838;2023-04-24T02:55:22;1.73;;;1.20;;
32292;SDS011;43233;48.608;8.838;2023-04-24T02:57:47;1.20;;;1.10;;
32292;SDS011;43233;48.608;8.838;2023-04-24T03:00:13;2.13;;;1.50;;
32292;SDS011;43233;48.608;8.838;2023-04-24T03:02:39;2.30;;;1.30;;
32292;SDS011;43233;48.608;8.838;2023-04-24T03:05:05;1.50;;;1.30;;
32292;SDS011;43233;48.608;8.838;2023-04-24T03:07:30;2.30;;;1.33;;
32292;SDS011;43233;48.608;8.838;2023-04-24T03:09:57;1.17;;;1.17;;
32292;SDS011;43233;48.608;8.838;2023-04-24T03:12:23;5.33;;;1.50;;
32292;SDS011;43233;48.608;8.838;2023-04-24T03:14:49;1.60;;;1.50;;
32292;SDS011;43233;48.608;8.838;2023-04-24T03:17:14;6.23;;;2.00;;
32292;SDS011;43233;48.608;8.838;2023-04-24T03:19:40;1.47;;;1.37;;
32292;SDS011;43233;48.608;8.838;2023-04-24T03:22:05;5.30;;;1.50;;
32292;SDS011;43233;48.608;8.838;2023-04-24T03:24:31;1.30;;;1.00;;
32292;SDS011;43233;48.608;8.838;2023-04-24T03:26:57;2.70;;;1.43;;
32292;SDS011;43233;48.608;8.838;2023-04-24T03:29:22;1.07;;;1.07;;
32292;SDS011;43233;48.608;8.838;2023-04-24T03:31:48;1.83;;;1.50;;
32292;SDS011;43233;48.608;8.838;2023-04-24T03:34:14;1.37;;;1.27;;
32292;SDS011;43233;48.608;8.838;2023-04-24T03:36:39;1.20;;;1.10;;
32292;SDS011;43233;48.608;8.838;2023-04-24T03:39:05;1.30;;;1.20;;
32292;SDS011;43233;48.608;8.838;2023-04-24T03:41:31;1.40;;;1.30;;
32292;SDS011;43233;48.608;8.838;2023-04-24T03:43:56;3.10;;;1.90;;
32292;SDS011;43233;48.608;8.838;2023-04-24T03:46:22;1.70;;;1.60;;
32292;SDS011;43233;48.608;8.838;2023-04-24T03:48:47;1.10;;;1.10;;
32292;SDS011;43233;48.608;8.838;2023-04-24T03:51:13;1.90;;;1.77;;
32292;SDS011;43233;48.608;8.838;2023-04-24T03:53:38;1.77;;;1.30;;
32292;SDS011;43233;48.608;8.838;2023-04-24T03:56:04;1.67;;;1.57;;
32292;SDS011;43233;48.608;8.838;2023-04-24T03:58:30;1.30;;;1.30;;
32292;SDS011;43233;48.608;8.838;2023-04-24T04:00:56;1.33;;;1.07;;
32292;SDS011;43233;48.608;8.838;2023-04-24T04:03:23;1.00;;;1.00;;
32292;SDS011;43233;48.608;8.838;2023-04-24T04:05:50;0.90;;;0.90;;
32292;SDS011;43233;48.608;8.838;2023-04-24T04:08:16;0.93;;;0.93;;
32292;SDS011;43233;48.608;8.838;2023-04-24T04:10:41;1.73;;;1.20;;
32292;SDS011;43233;48.608;8.838;2023-04-24T04:13:07;2.20;;;1.37;;
32292;SDS011;43233;48.608;8.838;2023-04-24T04:15:32;2.20;;;1.00;;
32292;SDS011;43233;48.608;8.838;2023-04-24T04:17:58;1.20;;;1.17;;
32292;SDS011;43233;48.608;8.838;2023-04-24T04:20:24;1.57;;;1.37;;
32292;SDS011;43233;48.608;8.838;2023-04-24T04:22:50;1.30;;;1.20;;
32292;SDS011;43233;48.608;8.838;2023-04-24T04:25:16;1.07;;;1.07;;
32292;SDS011;43233;48.608;8.838;2023-04-24T04:27:44;0.83;;;0.83;;
32292;SDS011;43233;48.608;8.838;2023-04-24T04:30:10;5.03;;;1.30;;
32292;SDS011;43233;48.608;8.838;2023-04-24T04:32:37;1.00;;;1.00;;
32292;SDS011;43233;48.608;8.838;2023-04-24T04:35:03;2.83;;;1.40;;
32292;SDS011;43233;48.608;8.838;2023-04-24T04:37:30;3.63;;;1.03;;
32292;SDS011;43233;48.608;8.838;2023-04-24T04:39:56;2.00;;;1.10;;
32292;SDS011;43233;48.608;8.838;2023-04-24T04:42:25;0.93;;;0.93;;
32292;SDS011;43233;48.608;8.838;2023-04-24T04:44:52;1.53;;;1.13;;
32292;SDS011;43233;48.608;8.838;2023-04-24T04:47:19;1.33;;;1.30;;
32292;SDS011;43233;48.608;8.838;2023-04-24T04:49:50;3.70;;;1.60;;
32292;SDS011;43233;48.608;8.838;2023-04-24T04:52:18;2.40;;;1.40;;
32292;SDS011;43233;48.608;8.838;2023-04-24T04:54:44;1.47;;;1.43;;
32292;SDS011;43233;48.608;8.838;2023-04-24T04:57:11;2.00;;;1.90;;
32292;SDS011;43233;48.608;8.838;2023-04-24T04:59:37;1.43;;;1.33;;
32292;SDS011;43233;48.608;8.838;2023-04-24T05:02:03;1.20;;;1.20;;
32292;SDS011;43233;48.608;8.838;2023-04-24T05:04:29;2.80;;;2.27;;
32292;SDS011;43233;48.608;8.838;2023-04-24T05:06:55;2.03;;;1.90;;
32292;SDS011;43233;48.608;8.838;2023-04-24T05:09:21;1.60;;;1.50;;
32292;SDS011;43233;48.608;8.838;2023-04-24T05:11:47;1.90;;;1.80;;
32292;SDS011;43233;48.608;8.838;2023-04-24T05:14:12;1.90;;;1.80;;
32292;SDS011;43233;48.608;8.838;2023-04-24T05:16:38;5.17;;;2.20;;
32292;SDS011;43233;48.608;8.838;2023-04-24T05:19:05;2.10;;;2.00;;
32292;SDS011;43233;48.608;8.838;2023-04-24T05:21:31;2.40;;;2.30;;
32292;SDS011;43233;48.608;8.838;2023-04-24T05:23:56;3.10;;;2.13;;
32292;SDS011;43233;48.608;8.838;2023-04-24T05:26:22;2.43;;;2.23;;
32292;SDS011;43233;48.608;8.838;2023-04-24T05:28:48;8.23;;;3.20;;
32292;SDS011;43233;48.608;8.838;2023-04-24T05:31:14;7.90;;;3.23;;
32292;SDS011;43233;48.608;8.838;2023-04-24T05:33:40;12.40;;;3.73;;
32292;SDS011;43233;48.608;8.838;2023-04-24T05:36:06;9.60;;;3.73;;
32292;SDS011;43233;48.608;8.838;2023-04-24T05:38:32;5.17;;;2.80;;
32292;SDS011;43233;48.608;8.838;2023-04-24T05:40:58;5.90;;;2.67;;
32292;SDS011;43233;48.608;8.838;2023-04-24T05:43:23;8.40;;;3.50;;
32292;SDS011;43233;48.608;8.838;2023-04-24T05:45:50;6.10;;;2.83;;
32292;SDS011;43233;48.608;8.838;2023-04-24T05:48:15;12.30;;;3.47;;
32292;SDS011;43233;48.608;8.838;2023-04-24T05:50:41;3.47;;;2.23;;
32292;SDS011;43233;48.608;8.838;2023-04-24T05:53:07;1.97;;;1.87;;
32292;SDS011;43233;48.608;8.838;2023-04-24T05:55:32;2.20;;;2.10;;
32292;SDS011;43233;48.608;8.838;2023-04-24T05:57:58;2.50;;;2.30;;
32292;SDS011;43233;48.608;8.838;2023-04-24T06:00:24;2.17;;;2.07;;
32292;SDS011;43233;48.608;8.838;2023-04-24T06:02:50;2.17;;;1.97;;
32292;SDS011;43233;48.608;8.838;2023-04-24T06:05:17;1.90;;;1.80;;
32292;SDS011;43233;48.608;8.838;2023-04-24T06:07:43;2.00;;;1.90;;
32292;SDS011;43233;48.608;8.838;2023-04-24T06:10:09;2.20;;;2.00;;
32292;SDS011;43233;48.608;8.838;2023-04-24T06:12:35;1.97;;;1.87;;
32292;SDS011;43233;48.608;8.838;2023-04-24T06:15:02;1.90;;;1.80;;
32292;SDS011;43233;48.608;8.838;2023-04-24T06:17:28;1.80;;;1.63;;
32292;SDS011;43233;48.608;8.838;2023-04-24T06:19:54;1.70;;;1.60;;
32292;SDS011;43233;48.608;8.838;2023-04-24T06:22:20;2.57;;;2.30;;
32292;SDS011;43233;48.608;8.838;2023-04-24T06:24:46;2.30;;;2.10;;
32292;SDS011;43233;48.608;8.838;2023-04-24T06:27:13;2.87;;;1.87;;
32292;SDS011;43233;48.608;8.838;2023-04-24T06:29:39;2.20;;;2.10;;
32292;SDS011;43233;48.608;8.838;2023-04-24T06:32:05;1.93;;;1.83;;
32292;SDS011;43233;48.608;8.838;2023-04-24T06:34:30;2.10;;;2.00;;
32292;SDS011;43233;48.608;8.838;2023-04-24T06:36:57;2.20;;;2.10;;
32292;SDS011;43233;48.608;8.838;2023-04-24T06:39:23;1.80;;;1.70;;
32292;SDS011;43233;48.608;8.838;2023-04-24T06:41:49;2.30;;;2.10;;
32292;SDS011;43233;48.608;8.838;2023-04-24T06:44:14;1.90;;;1.80;;
32292;SDS011;43233;48.608;8.838;2023-04-24T06:46:40;2.40;;;2.17;;
32292;SDS011;43233;48.608;8.838;2023-04-24T06:49:06;1.80;;;1.70;;
32292;SDS011;43233;48.608;8.838;2023-04-24T06:51:32;1.90;;;1.80;;
32292;SDS011;43233;48.608;8.838;2023-04-24T06:53:58;2.93;;;2.10;;
32292;SDS011;43233;48.608;8.838;2023-04-24T06:56:24;2.50;;;2.30;;
32292;SDS011;43233;48.608;8.838;2023-04-24T06:58:50;3.40;;;2.00;;
32292;SDS011;43233;48.608;8.838;2023-04-24T07:01:16;1.83;;;1.73;;
32292;SDS011;43233;48.608;8.838;2023-04-24T07:03:42;2.30;;;2.20;;
32292;SDS011;43233;48.608;8.838;2023-04-24T07:06:08;1.80;;;1.70;;
32292;SDS011;43233;48.608;8.838;2023-04-24T07:08:36;1.70;;;1.60;;
32292;SDS011;43233;48.608;8.838;2023-04-24T07:11:02;1.97;;;1.87;;
32292;SDS011;43233;48.608;8.838;2023-04-24T07:13:28;1.77;;;1.67;;
32292;SDS011;43233;48.608;8.838;2023-04-24T07:15:54;9.67;;;2.13;;
32292;SDS011;43233;48.608;8.838;2023-04-24T07:18:21;1.90;;;1.80;;
32292;SDS011;43233;48.608;8.838;2023-04-24T07:20:47;2.00;;;1.90;;
32292;SDS011;43233;48.608;8.838;2023-04-24T07:23:15;1.90;;;1.80;;
32292;SDS011;43233;48.608;8.838;2023-04-24T07:25:40;1.40;;;1.40;;
32292;SDS011;43233;48.608;8.838;2023-04-24T07:28:06;1.80;;;1.60;;
32292;SDS011;43233;48.608;8.838;2023-04-24T07:30:32;6.10;;;1.90;;
32292;SDS011;43233;48.608;8.838;2023-04-24T07:32:58;7.80;;;1.60;;
32292;SDS011;43233;48.608;8.838;2023-04-24T07:35:24;1.77;;;1.70;;
32292;SDS011;43233;48.608;8.838;2023-04-24T07:37:53;1.70;;;1.60;;
32292;SDS011;43233;48.608;8.838;2023-04-24T07:40:19;1.90;;;1.80;;
32292;SDS011;43233;48.608;8.838;2023-04-24T07:42:46;2.17;;;1.97;;
32292;SDS011;43233;48.608;8.838;2023-04-24T07:45:13;1.57;;;1.47;;
32292;SDS011;43233;48.608;8.838;2023-04-24T07:47:40;5.07;;;1.70;;
32292;SDS011;43233;48.608;8.838;2023-04-24T07:50:09;2.20;;;2.00;;
32292;SDS011;43233;48.608;8.838;2023-04-24T07:52:35;2.33;;;2.13;;
32292;SDS011;43233;48.608;8.838;2023-04-24T07:55:00;2.00;;;1.80;;
32292;SDS011;43233;48.608;8.838;2023-04-24T07:57:27;2.10;;;2.00;;
32292;SDS011;43233;48.608;8.838;2023-04-24T07:59:53;1.97;;;1.87;;
32292;SDS011;43233;48.608;8.838;2023-04-24T08:02:18;2.20;;;2.10;;
32292;SDS011;43233;48.608;8.838;2023-04-24T08:04:44;2.53;;;2.33;;
32292;SDS011;43233;48.608;8.838;2023-04-24T08:07:10;2.17;;;2.07;;
32292;SDS011;43233;48.608;8.838;2023-04-24T08:09:37;3.90;;;1.73;;
32292;SDS011;43233;48.608;8.838;2023-04-24T08:12:03;1.83;;;1.73;;
32292;SDS011;43233;48.608;8.838;2023-04-24T08:14:29;2.67;;;1.97;;
32292;SDS011;43233;48.608;8.838;2023-04-24T08:16:57;2.50;;;1.80;;
32292;SDS011;43233;48.608;8.838;2023-04-24T08:19:25;3.30;;;2.13;;
32292;SDS011;43233;48.608;8.838;2023-04-24T08:21:50;5.07;;;2.23;;
32292;SDS011;43233;48.608;8.838;2023-04-24T08:24:16;4.33;;;1.90;;
32292;SDS011;43233;48.608;8.838;2023-04-24T08:26:42;2.10;;;2.00;;
32292;SDS011;43233;48.608;8.838;2023-04-24T08:29:07;2.10;;;1.90;;
32292;SDS011;43233;48.608;8.838;2023-04-24T08:31:33;2.50;;;2.27;;
32292;SDS011;43233;48.608;8.838;2023-04-24T08:34:00;2.10;;;1.90;;
32292;SDS011;43233;48.608;8.838;2023-04-24T08:36:26;2.60;;;1.90;;
32292;SDS011;43233;48.608;8.838;2023-04-24T08:38:52;3.43;;;2.40;;
32292;SDS011;43233;48.608;8.838;2023-04-24T08:41:18;3.77;;;2.03;;
32292;SDS011;43233;48.608;8.838;2023-04-24T08:43:47;2.00;;;1.80;;
32292;SDS011;43233;48.608;8.838;2023-04-24T08:46:14;4.93;;;2.17;;
32292;SDS011;43233;48.608;8.838;2023-04-24T08:48:41;4.13;;;1.83;;
32292;SDS011;43233;48.608;8.838;2023-04-24T08:51:07;3.87;;;2.03;;
32292;SDS011;43233;48.608;8.838;2023-04-24T08:53:34;4.77;;;2.40;;
32292;SDS011;43233;48.608;8.838;2023-04-24T08:56:00;2.17;;;2.07;;
32292;SDS011;43233;48.608;8.838;2023-04-24T08:58:27;2.20;;;2.10;;
32292;SDS011;43233;48.608;8.838;2023-04-24T09:00:54;2.10;;;2.00;;
32292;SDS011;43233;48.608;8.838;2023-04-24T09:03:20;2.70;;;2.23;;
32292;SDS011;43233;48.608;8.838;2023-04-24T09:05:47;2.50;;;2.30;;
32292;SDS011;43233;48.608;8.838;2023-04-24T09:08:18;2.47;;;2.20;;
32292;SDS011;43233;48.608;8.838;2023-04-24T09:10:45;2.50;;;2.07;;
32292;SDS011;43233;48.608;8.838;2023-04-24T09:13:10;1.83;;;1.73;;
32292;SDS011;43233;48.608;8.838;2023-04-24T09:15:39;2.47;;;2.10;;
32292;SDS011;43233;48.608;8.838;2023-04-24T09:18:06;2.53;;;1.67;;
32292;SDS011;43233;48.608;8.838;2023-04-24T09:20:31;4.20;;;1.50;;
32292;SDS011;43233;48.608;8.838;2023-04-24T09:22:58;1.87;;;1.77;;
32292;SDS011;43233;48.608;8.838;2023-04-24T09:25:33;1.90;;;1.80;;
32292;SDS011;43233;48.608;8.838;2023-04-24T09:28:01;1.63;;;1.57;;
32292;SDS011;43233;48.608;8.838;2023-04-24T09:30:28;2.00;;;1.90;;
32292;SDS011;43233;48.608;8.838;2023-04-24T09:33:13;2.23;;;2.13;;
32292;SDS011;43233;48.608;8.838;2023-04-24T09:36:01;3.27;;;1.37;;
32292;SDS011;43233;48.608;8.838;2023-04-24T09:38:33;2.03;;;1.93;;
32292;SDS011;43233;48.608;8.838;2023-04-24T09:41:01;1.50;;;1.40;;
32292;SDS011;43233;48.608;8.838;2023-04-24T09:43:31;1.57;;;1.40;;
32292;SDS011;43233;48.608;8.838;2023-04-24T09:45:57;2.00;;;1.80;;
32292;SDS011;43233;48.608;8.838;2023-04-24T09:48:32;1.53;;;1.33;;
32292;SDS011;43233;48.608;8.838;2023-04-24T09:51:00;1.73;;;1.63;;
32292;SDS011;43233;48.608;8.838;2023-04-24T09:53:28;1.57;;;1.27;;
32292;SDS011;43233;48.608;8.838;2023-04-24T09:55:54;2.33;;;2.23;;
32292;SDS011;43233;48.608;8.838;2023-04-24T09:58:26;1.50;;;1.40;;
32292;SDS011;43233;48.608;8.838;2023-04-24T10:00:55;4.40;;;1.70;;
32292;SDS011;43233;48.608;8.838;2023-04-24T10:03:25;2.70;;;1.53;;
32292;SDS011;43233;48.608;8.838;2023-04-24T10:05:58;1.23;;;1.23;;
32292;SDS011;43233;48.608;8.838;2023-04-24T10:08:25;3.80;;;1.57;;
32292;SDS011;43233;48.608;8.838;2023-04-24T10:10:51;1.77;;;1.67;;
32292;SDS011;43233;48.608;8.838;2023-04-24T10:13:17;2.77;;;1.50;;
32292;SDS011;43233;48.608;8.838;2023-04-24T10:15:43;2.40;;;2.20;;
32292;SDS011;43233;48.608;8.838;2023-04-24T10:18:10;3.07;;;1.90;;
32292;SDS011;43233;48.608;8.838;2023-04-24T10:20:37;6.47;;;1.63;;
32292;SDS011;43233;48.608;8.838;2023-04-24T10:23:04;1.63;;;1.53;;
32292;SDS011;43233;48.608;8.838;2023-04-24T10:25:32;2.27;;;1.50;;
32292;SDS011;43233;48.608;8.838;2023-04-24T10:28:01;1.87;;;1.77;;
32292;SDS011;43233;48.608;8.838;2023-04-24T10:30:29;5.20;;;2.23;;
32292;SDS011;43233;48.608;8.838;2023-04-24T10:32:59;1.80;;;1.70;;
32292;SDS011;43233;48.608;8.838;2023-04-24T10:35:25;1.50;;;1.50;;
32292;SDS011;43233;48.608;8.838;2023-04-24T10:40:17;2.40;;;1.80;;
32292;SDS011;43233;48.608;8.838;2023-04-24T10:42:48;2.73;;;1.47;;
32292;SDS011;43233;48.608;8.838;2023-04-24T10:45:20;3.43;;;2.00;;
32292;SDS011;43233;48.608;8.838;2023-04-24T10:50:23;1.70;;;1.60;;
32292;SDS011;43233;48.608;8.838;2023-04-24T10:52:50;1.57;;;1.47;;
32292;SDS011;43233;48.608;8.838;2023-04-24T10:55:39;4.67;;;1.87;;
32292;SDS011;43233;48.608;8.838;2023-04-24T10:58:06;2.87;;;1.60;;
32292;SDS011;43233;48.608;8.838;2023-04-24T11:00:32;1.90;;;1.80;;
32292;SDS011;43233;48.608;8.838;2023-04-24T11:02:58;2.93;;;2.00;;
32292;SDS011;43233;48.608;8.838;2023-04-24T11:05:49;1.40;;;1.30;;
32292;SDS011;43233;48.608;8.838;2023-04-24T11:08:15;1.50;;;1.50;;
32292;SDS011;43233;48.608;8.838;2023-04-24T11:10:55;2.97;;;1.60;;
32292;SDS011;43233;48.608;8.838;2023-04-24T11:13:23;1.83;;;1.73;;
32292;SDS011;43233;48.608;8.838;2023-04-24T11:18:40;1.60;;;1.50;;
32292;SDS011;43233;48.608;8.838;2023-04-24T11:21:15;1.77;;;1.37;;
32292;SDS011;43233;48.608;8.838;2023-04-24T11:23:42;2.73;;;1.40;;
32292;SDS011;43233;48.608;8.838;2023-04-24T11:26:09;1.40;;;1.40;;
32292;SDS011;43233;48.608;8.838;2023-04-24T11:28:37;1.93;;;1.70;;
32292;SDS011;43233;48.608;8.838;2023-04-24T11:34:07;1.77;;;1.67;;
32292;SDS011;43233;48.608;8.838;2023-04-24T11:36:38;1.80;;;1.70;;
32292;SDS011;43233;48.608;8.838;2023-04-24T11:39:05;1.73;;;1.67;;
32292;SDS011;43233;48.608;8.838;2023-04-24T11:41:31;1.80;;;1.60;;
32292;SDS011;43233;48.608;8.838;2023-04-24T11:43:58;2.03;;;1.93;;
32292;SDS011;43233;48.608;8.838;2023-04-24T11:46:27;2.63;;;1.37;;
32292;SDS011;43233;48.608;8.838;2023-04-24T11:48:54;2.13;;;1.87;;
32292;SDS011;43233;48.608;8.838;2023-04-24T11:51:19;2.13;;;2.03;;
32292;SDS011;43233;48.608;8.838;2023-04-24T11:53:45;2.30;;;2.10;;
32292;SDS011;43233;48.608;8.838;2023-04-24T11:56:10;1.80;;;1.70;;
32292;SDS011;43233;48.608;8.838;2023-04-24T11:58:39;3.23;;;1.67;;
32292;SDS011;43233;48.608;8.838;2023-04-24T12:01:05;2.43;;;1.70;;
32292;SDS011;43233;48.608;8.838;2023-04-24T12:03:31;1.93;;;1.83;;
32292;SDS011;43233;48.608;8.838;2023-04-24T12:08:33;1.80;;;1.70;;
32292;SDS011;43233;48.608;8.838;2023-04-24T12:11:02;2.33;;;1.70;;
32292;SDS011;43233;48.608;8.838;2023-04-24T12:13:29;7.83;;;2.10;;
32292;SDS011;43233;48.608;8.838;2023-04-24T12:15:56;2.37;;;2.27;;
32292;SDS011;43233;48.608;8.838;2023-04-24T12:18:22;1.90;;;1.80;;
32292;SDS011;43233;48.608;8.838;2023-04-24T12:20:48;2.03;;;1.80;;
32292;SDS011;43233;48.608;8.838;2023-04-24T12:23:15;2.10;;;2.00;;
32292;SDS011;43233;48.608;8.838;2023-04-24T12:25:40;3.10;;;2.00;;
32292;SDS011;43233;48.608;8.838;2023-04-24T12:30:38;2.13;;;1.63;;
32292;SDS011;43233;48.608;8.838;2023-04-24T12:33:17;1.70;;;1.60;;
32292;SDS011;43233;48.608;8.838;2023-04-24T12:35:47;5.83;;;2.03;;
32292;SDS011;43233;48.608;8.838;2023-04-24T12:38:16;1.77;;;1.67;;
32292;SDS011;43233;48.608;8.838;2023-04-24T12:40:47;2.60;;;1.97;;
32292;SDS011;43233;48.608;8.838;2023-04-24T12:43:16;2.50;;;2.30;;
32292;SDS011;43233;48.608;8.838;2023-04-24T12:45:44;2.00;;;1.90;;
32292;SDS011;43233;48.608;8.838;2023-04-24T12:48:12;2.07;;;1.97;;
32292;SDS011;43233;48.608;8.838;2023-04-24T12:50:41;2.37;;;2.27;;
32292;SDS011;43233;48.608;8.838;2023-04-24T12:53:08;4.77;;;1.97;;
32292;SDS011;43233;48.608;8.838;2023-04-24T12:55:34;3.20;;;1.90;;
32292;SDS011;43233;48.608;8.838;2023-04-24T12:58:00;4.60;;;2.33;;
32292;SDS011;43233;48.608;8.838;2023-04-24T13:00:26;2.20;;;2.10;;
32292;SDS011;43233;48.608;8.838;2023-04-24T13:02:52;2.10;;;2.00;;
32292;SDS011;43233;48.608;8.838;2023-04-24T13:05:18;3.10;;;2.00;;
32292;SDS011;43233;48.608;8.838;2023-04-24T13:07:44;1.90;;;1.80;;
32292;SDS011;43233;48.608;8.838;2023-04-24T13:10:09;2.17;;;2.07;;
32292;SDS011;43233;48.608;8.838;2023-04-24T13:12:35;5.33;;;2.27;;
32292;SDS011;43233;48.608;8.838;2023-04-24T13:15:01;2.37;;;2.17;;
32292;SDS011;43233;48.608;8.838;2023-04-24T13:17:28;2.53;;;2.33;;
32292;SDS011;43233;48.608;8.838;2023-04-24T13:19:54;2.40;;;2.30;;
32292;SDS011;43233;48.608;8.838;2023-04-24T13:22:20;2.20;;;2.00;;
32292;SDS011;43233;48.608;8.838;2023-04-24T13:24:46;2.40;;;2.30;;
32292;SDS011;43233;48.608;8.838;2023-04-24T13:27:13;2.10;;;2.00;;
32292;SDS011;43233;48.608;8.838;2023-04-24T13:29:40;2.60;;;2.40;;
32292;SDS011;43233;48.608;8.838;2023-04-24T13:32:06;5.53;;;2.53;;
32292;SDS011;43233;48.608;8.838;2023-04-24T13:34:32;2.17;;;2.00;;
32292;SDS011;43233;48.608;8.838;2023-04-24T13:36:59;1.43;;;1.43;;
32292;SDS011;43233;48.608;8.838;2023-04-24T13:39:25;2.47;;;2.03;;
32292;SDS011;43233;48.608;8.838;2023-04-24T13:41:51;3.57;;;2.30;;
32292;SDS011;43233;48.608;8.838;2023-04-24T13:44:18;2.10;;;2.00;;
32292;SDS011;43233;48.608;8.838;2023-04-24T13:46:45;2.27;;;2.10;;
32292;SDS011;43233;48.608;8.838;2023-04-24T13:49:13;3.57;;;2.40;;
32292;SDS011;43233;48.608;8.838;2023-04-24T13:51:40;3.90;;;2.03;;
32292;SDS011;43233;48.608;8.838;2023-04-24T13:54:06;5.70;;;2.20;;
32292;SDS011;43233;48.608;8.838;2023-04-24T13:56:32;3.77;;;1.90;;
32292;SDS011;43233;48.608;8.838;2023-04-24T13:58:58;2.63;;;2.13;;
32292;SDS011;43233;48.608;8.838;2023-04-24T14:01:23;2.80;;;2.50;;
32292;SDS011;43233;48.608;8.838;2023-04-24T14:03:50;2.60;;;2.50;;
32292;SDS011;43233;48.608;8.838;2023-04-24T14:06:17;2.57;;;2.40;;
32292;SDS011;43233;48.608;8.838;2023-04-24T14:08:43;2.77;;;2.53;;
32292;SDS011;43233;48.608;8.838;2023-04-24T14:11:09;2.37;;;2.17;;
32292;SDS011;43233;48.608;8.838;2023-04-24T14:13:35;2.33;;;2.13;;
32292;SDS011;43233;48.608;8.838;2023-04-24T14:16:02;2.27;;;2.03;;
32292;SDS011;43233;48.608;8.838;2023-04-24T14:18:28;2.27;;;2.17;;
32292;SDS011;43233;48.608;8.838;2023-04-24T14:20:54;2.20;;;2.10;;
32292;SDS011;43233;48.608;8.838;2023-04-24T14:23:20;2.80;;;2.13;;
32292;SDS011;43233;48.608;8.838;2023-04-24T14:25:46;2.00;;;1.90;;
32292;SDS011;43233;48.608;8.838;2023-04-24T14:28:15;1.97;;;1.87;;
32292;SDS011;43233;48.608;8.838;2023-04-24T14:30:42;2.10;;;1.90;;
32292;SDS011;43233;48.608;8.838;2023-04-24T14:33:07;3.63;;;2.40;;
32292;SDS011;43233;48.608;8.838;2023-04-24T14:35:33;2.80;;;2.10;;
32292;SDS011;43233;48.608;8.838;2023-04-24T14:38:00;3.13;;;2.67;;
32292;SDS011;43233;48.608;8.838;2023-04-24T14:40:26;2.23;;;1.90;;
32292;SDS011;43233;48.608;8.838;2023-04-24T14:42:51;2.30;;;2.10;;
32292;SDS011;43233;48.608;8.838;2023-04-24T14:45:17;5.30;;;2.33;;
32292;SDS011;43233;48.608;8.838;2023-04-24T14:47:44;2.40;;;2.20;;
32292;SDS011;43233;48.608;8.838;2023-04-24T14:50:10;4.33;;;2.90;;
32292;SDS011;43233;48.608;8.838;2023-04-24T14:52:37;2.50;;;2.30;;
32292;SDS011;43233;48.608;8.838;2023-04-24T14:55:03;3.37;;;1.90;;
32292;SDS011;43233;48.608;8.838;2023-04-24T14:57:30;2.60;;;2.40;;
32292;SDS011;43233;48.608;8.838;2023-04-24T14:59:55;2.50;;;2.30;;
32292;SDS011;43233;48.608;8.838;2023-04-24T15:02:21;2.43;;;2.23;;